METAR v bližini

 

LJLJ - Ljubljana/Brnik, Slovenia
Oddaljenost od postaje: Z 41km
Podatki zajeti: 21/06/2018 19:30
Pretežno oblačno
Pretežno oblačno
 Veter iz smeri ZJZ
Veter: ZJZ 13 km/h
Temperatura: 26°C
Rosišče: 16°C
Vlažnost: 54%
Tlak: 1012 hPa
Oblačnost: Pretežno oblačno
Vidljivost: 10 km
Podrobnosti o oblakih: Rahlo oblačno 1372 m
Pretežno oblačno 7620 m
2018/06/21 17:30 LJLJ 211730Z 25007KT 200V280 9999 FEW045 BKN250 26/16 Q1012 NOSIG
LJMB - Maribor, Slovenia
Oddaljenost od postaje: SV 63km
Podatki zajeti: 21/06/2018 19:30
Delno oblačno
Delno oblačno
 Veter iz smeri JJZ
Veter: JJZ 9 km/h
Temperatura: 27°C
Toplotni indeks: 28°C
Rosišče: 16°C
Vlažnost: 51%
Tlak: 1010 hPa
Oblačnost: Delno oblačno
Vidljivost: 10 km
Podrobnosti o oblakih: Rahlo oblačno 1524 m
Delno oblačno 7010 m
2018/06/21 17:30 LJMB 211730Z 20005KT 170V230 9999 FEW050 SCT230 27/16 Q1010
 
LJPZ - Portoroz, Slovenia
Oddaljenost od postaje: JZ 130km
Podatki zajeti: 21/06/2018 19:30
Jasno
Jasno
 Veter iz smeri JZ
Veter: JZ 6 km/h
Temperatura: 29°C
Toplotni indeks: 29°C
Rosišče: 15°C
Vlažnost: 43%
Tlak: 1012 hPa
Stanje: Jasno
Vidljivost: večja od 10 km
2018/06/21 17:30 LJPZ 211730Z 22003KT CAVOK 29/15 Q1012
LJCE - Cerklje, Slovenia
Oddaljenost od postaje: VJV 49km
Podatki zajeti: 21/06/2018 19:30
Jasno
Jasno
 Veter iz smeri ZJZ
Veter: ZJZ 19 km/h
Temperatura: 28°C
Toplotni indeks: 28°C
Rosišče: 17°C
Vlažnost: 51%
Tlak: 1010 hPa
Stanje: Jasno
Vidljivost: večja od 10 km
2018/06/21 17:30 LJCE 211730Z 24010KT CAVOK 28/17 Q1010 RMK BLU
 
LDZA - Zagreb/Pleso, Croatia
Oddaljenost od postaje: VJV 96km
Podatki zajeti: 21/06/2018 19:30
Jasno
Jasno
 Veter iz smeri JZ
Veter: JZ 15 km/h
Temperatura: 29°C
Toplotni indeks: 29°C
Rosišče: 16°C
Vlažnost: 45%
Tlak: 1010 hPa
Stanje: Jasno
Vidljivost: večja od 10 km
2018/06/21 17:30 LDZA 211730Z 22008KT CAVOK 29/16 Q1010 BECMG 23005KT
LDRI - Rijeka/Omisalj, Croatia
Oddaljenost od postaje: JJZ 109km
Podatki zajeti: 21/06/2018 19:30
Jasno
Jasno
 Veter iz smeri Z
Veter: Z 9 km/h
Temperatura: 27°C
Toplotni indeks: 28°C
Rosišče: 17°C
Vlažnost: 54%
Tlak: 1012 hPa
Stanje: Jasno
Vidljivost: večja od 10 km
2018/06/21 17:30 LDRI 211730Z 26005KT 210V310 CAVOK 27/17 Q1012
 
LDPL - Pula, Croatia
Oddaljenost od postaje: JJZ 164km
Podatki zajeti: 21/06/2018 19:30
Jasno
Jasno
 Veter iz smeri JZ
Veter: JZ 9 km/h
Temperatura: 26°C
Rosišče: 15°C
Vlažnost: 51%
Tlak: 1012 hPa
Stanje: Jasno
Vidljivost: večja od 10 km
2018/06/21 17:30 LDPL 211730Z 22005KT CAVOK 26/15 Q1012 NOSIG
LOWK - Klagenfurt(Civ/M, Austria
Oddaljenost od postaje: SZ 76km
Podatki zajeti: 21/06/2018 19:20
Delno oblačno
Delno oblačno
 Veter iz smeri ZSZ
Veter: ZSZ 9 km/h
Temperatura: 24°C
Rosišče: 15°C
Vlažnost: 57%
Tlak: 1012 hPa
Oblačnost: Delno oblačno
Vidljivost: 10 km
Podrobnosti o oblakih: Delno oblačno 1829 m
Rahlo oblačno 1829 m
Delno oblačno 3353 m
2018/06/21 17:20 LOWK 211720Z 30005KT 250V330 9999 SCT060 FEW060CB SCT110 24/15 Q1012 NOSIG
 
LOWG - Graz (mil/Civ), Austria
Oddaljenost od postaje: SSV 100km
Podatki zajeti: 21/06/2018 19:20
Nevihte, Pretežno oblačno
Nevihte, Pretežno oblačno
 Veter iz smeri VSV
Veter: VSV 26 km/h
Temperatura: 24°C
Rosišče: 14°C
Vlažnost: 54%
Tlak: 1011 hPa
Stanje: Nevihte
Oblačnost: Pretežno oblačno
Vidljivost: 10 km
Podrobnosti o oblakih: Delno oblačno 1524 m
Delno oblačno 1524 m
Pretežno oblačno 3048 m
2018/06/21 17:20 LOWG 211720Z 06014KT 020V090 9999 TS SCT050 SCT050CB BKN100 24/14 Q1011 TEMPO 34020G30KT 2500 TSRA
LOWZ - Zell Am See, Austria
Oddaljenost od postaje: SZ 211km
Podatki zajeti: 31/12/2016 17:00
Ni posodobljen
Jasno
Jasno
 Veter iz smeri spremenljiv
Veter: spremenljiv 4 km/h
Temperatura: -4°C
Rosišče: -7°C
Vlažnost: 80%
Tlak: 1031 hPa
Oblačnost: Jasno
2016/12/31 16:00 LOWZ 311600Z VRB02KT 50KM SKC M04/M07 Q1031
 
LOAN - Wr.neustadt East, Austria
Oddaljenost od postaje: SSV 212km
Podatki zajeti: 21/06/2018 19:00
Delno oblačno
Delno oblačno
 Veter iz smeri ZJZ
Veter: ZJZ 15 km/h
Oblačnost: Delno oblačno
Podrobnosti o oblakih: Rahlo oblačno 1219 m
Rahlo oblačno 1219 m
Delno oblačno 3048 m
2018/06/21 17:00 LOAN 211700Z 24008KT 16KM FEW040CU FEW040CB SCT100AC
LIPQ - Ronchi Legionari, Italy
Oddaljenost od postaje: JZ 35km
Podatki zajeti: 21/06/2018 19:20
Jasno
Jasno
 Veter iz smeri J
Veter: J 9 km/h
Temperatura: 28°C
Toplotni indeks: 28°C
Rosišče: 17°C
Vlažnost: 51%
Tlak: 1011 hPa
Stanje: Jasno
Vidljivost: večja od 10 km
2018/06/21 17:20 LIPQ 211720Z 18005KT 150V210 CAVOK 28/17 Q1011
 
LIVT - Trieste, Italy
Oddaljenost od postaje: ZJZ 109km
Podatki zajeti: 21/06/2018 18:55
Jasno
Jasno
 Veter iz smeri calm
Veter: Tišina
Temperatura: 27°C
Toplotni indeks: 28°C
Rosišče: 19°C
Vlažnost: 62%
Tlak: 1012 hPa
Stanje: Jasno
Vidljivost: večja od 10 km
2018/06/21 16:55 LIVT 211655Z 00000KT CAVOK 27/19 Q1012 RMK BKN BKN160 QUK 2 QUL 0 VIS MAR 20 KM VIS MIN 9999
LIVO - Tarvisio, Italy
Oddaljenost od postaje: SSZ 49km
Podatki zajeti: 21/06/2018 18:55
Delno oblačno
Delno oblačno
 Veter iz smeri ZJZ
Veter: ZJZ 9 km/h
Temperatura: 24°C
Rosišče: 17°C
Vlažnost: 65%
Tlak: 1014 hPa
Oblačnost: Delno oblačno
Vidljivost: 10 km
Podrobnosti o oblakih: Delno oblačno 610 m
2018/06/21 16:55 LIVO 211655Z 25005KT 9999 SCT020 24/17 Q1014 RMK BKN BKN070 VIS MIN 9999
 
LIPZ - Venezia/Tessera, Italy
Oddaljenost od postaje: ZJZ 217km
Podatki zajeti: 21/06/2018 19:20
Jasno
Jasno
 Veter iz smeri JJV
Veter: JJV 15 km/h
Temperatura: 27°C
Toplotni indeks: 29°C
Rosišče: 21°C
Vlažnost: 70%
Tlak: 1011 hPa
Stanje: Jasno
Vidljivost: večja od 10 km
2018/06/21 17:20 LIPZ 211720Z 15008KT CAVOK 27/21 Q1011 NOSIG
LHSM - Balaton, Hungary
Oddaljenost od postaje: VSV 177km
Podatki zajeti: 21/06/2018 17:45
Ni posodobljen
Jasno
Jasno
 Veter iz smeri J
Veter: J 17 km/h
Temperatura: 30°C
Toplotni indeks: 31°C
Rosišče: 18°C
Vlažnost: 49%
Tlak: 1011 hPa
Stanje: Jasno
Vidljivost: večja od 10 km
2018/06/21 15:45 LHSM 211545Z 19009KT CAVOK 30/18 Q1011 NOSIG